createdAt,value
2023-05-21T00:00:32.725Z,11.51
2023-05-21T00:02:59.822Z,11.71
2023-05-21T00:05:26.891Z,11.48
2023-05-21T00:07:55.137Z,11.48
2023-05-21T00:10:22.353Z,11.58
2023-05-21T00:12:49.423Z,11.50
2023-05-21T00:15:16.625Z,11.33
2023-05-21T00:17:44.769Z,11.25
2023-05-21T00:20:13.114Z,11.07
2023-05-21T00:22:42.518Z,10.94
2023-05-21T00:25:10.561Z,10.91
2023-05-21T00:27:37.816Z,10.95
2023-05-21T00:30:05.569Z,10.76
2023-05-21T00:32:32.583Z,10.72
2023-05-21T00:34:59.549Z,10.74
2023-05-21T00:37:26.724Z,10.82
2023-05-21T00:39:53.669Z,10.66
2023-05-21T00:42:20.670Z,10.54
2023-05-21T00:44:47.785Z,10.56
2023-05-21T00:47:18.566Z,10.68
2023-05-21T00:49:45.904Z,10.79
2023-05-21T00:52:13.076Z,10.80
2023-05-21T00:54:40.111Z,10.98
2023-05-21T00:57:07.842Z,10.93
2023-05-21T00:59:35.181Z,10.93
2023-05-21T01:02:04.415Z,10.87
2023-05-21T01:04:32.326Z,10.77
2023-05-21T01:06:59.497Z,10.70
2023-05-21T01:09:27.465Z,10.89
2023-05-21T01:11:56.212Z,10.80
2023-05-21T01:14:24.809Z,10.70
2023-05-21T01:16:53.182Z,10.69
2023-05-21T01:19:22.740Z,10.62
2023-05-21T01:21:56.589Z,10.82
2023-05-21T01:24:23.655Z,10.69
2023-05-21T01:26:50.753Z,10.66
2023-05-21T01:29:17.691Z,10.75
2023-05-21T01:32:05.076Z,10.72
2023-05-21T01:34:42.401Z,10.54
2023-05-21T01:37:17.738Z,10.56
2023-05-21T01:39:52.090Z,10.54
2023-05-21T01:42:20.044Z,10.46
2023-05-21T01:44:48.840Z,10.43
2023-05-21T01:47:18.382Z,10.36
2023-05-21T01:49:46.304Z,10.41
2023-05-21T01:52:13.431Z,10.29
2023-05-21T01:54:40.394Z,10.25
2023-05-21T01:57:07.496Z,10.31
2023-05-21T01:59:35.182Z,10.22
2023-05-21T02:02:02.197Z,10.19
2023-05-21T02:04:29.106Z,10.27
2023-05-21T02:06:55.988Z,10.19
2023-05-21T02:09:23.028Z,10.07
2023-05-21T02:11:50.175Z,9.97
2023-05-21T02:14:17.097Z,9.96
2023-05-21T02:16:44.102Z,9.93
2023-05-21T02:19:11.641Z,9.91
2023-05-21T02:21:38.771Z,9.93
2023-05-21T02:24:06.062Z,10.04
2023-05-21T02:26:33.129Z,10.01
2023-05-21T02:29:00.035Z,10.00
2023-05-21T02:31:27.012Z,9.84
2023-05-21T02:33:57.239Z,9.96
2023-05-21T02:36:25.660Z,10.02
2023-05-21T02:38:52.982Z,10.17
2023-05-21T02:41:19.840Z,10.01
2023-05-21T02:43:46.743Z,10.03
2023-05-21T02:46:13.916Z,9.95
2023-05-21T02:48:41.192Z,10.12
2023-05-21T02:51:08.098Z,10.22
2023-05-21T02:53:35.081Z,10.33
2023-05-21T02:56:02.029Z,10.34
2023-05-21T02:58:29.146Z,10.46
2023-05-21T03:00:56.085Z,10.37
2023-05-21T03:03:23.111Z,10.59
2023-05-21T03:05:50.655Z,10.47
2023-05-21T03:08:17.781Z,10.52
2023-05-21T03:10:44.894Z,10.54
2023-05-21T03:13:11.994Z,10.64
2023-05-21T03:15:39.734Z,10.64
2023-05-21T03:18:06.836Z,10.65
2023-05-21T03:20:33.929Z,10.59
2023-05-21T03:23:04.343Z,10.67
2023-05-21T03:25:31.537Z,10.54
2023-05-21T03:27:58.498Z,10.60
2023-05-21T03:30:25.367Z,10.59
2023-05-21T03:32:52.251Z,10.57
2023-05-21T03:35:19.274Z,10.62
2023-05-21T03:37:46.728Z,10.81
2023-05-21T03:40:14.064Z,10.77
2023-05-21T03:42:43.934Z,10.49
2023-05-21T03:45:11.860Z,10.68
2023-05-21T03:47:38.909Z,10.80
2023-05-21T03:50:06.896Z,10.86
2023-05-21T03:52:33.882Z,10.93
2023-05-21T03:55:00.888Z,11.09
2023-05-21T03:57:28.623Z,11.08
2023-05-21T03:59:56.211Z,11.11
2023-05-21T04:02:27.371Z,11.13
2023-05-21T04:04:56.226Z,11.16
2023-05-21T04:07:24.097Z,11.39
2023-05-21T04:09:51.216Z,11.64
2023-05-21T04:12:20.362Z,11.86
2023-05-21T04:14:48.030Z,12.10
2023-05-21T04:17:15.169Z,12.37
2023-05-21T04:19:42.355Z,12.57
2023-05-21T04:22:13.549Z,12.67
2023-05-21T04:24:40.799Z,13.03
2023-05-21T04:27:10.172Z,13.18
2023-05-21T04:29:37.908Z,13.01
2023-05-21T04:32:08.627Z,12.92
2023-05-21T04:34:35.594Z,12.76
2023-05-21T04:37:05.111Z,13.10
2023-05-21T04:39:32.528Z,13.20
2023-05-21T04:41:59.538Z,13.10
2023-05-21T04:44:26.483Z,13.17
2023-05-21T04:46:55.108Z,13.37
2023-05-21T04:49:22.525Z,13.01
2023-05-21T04:51:52.527Z,12.97
2023-05-21T04:54:19.473Z,13.00
2023-05-21T04:56:47.664Z,13.25
2023-05-21T04:59:15.303Z,13.38
2023-05-21T05:01:44.164Z,13.58
2023-05-21T05:04:11.347Z,13.67
2023-05-21T05:06:38.360Z,13.50
2023-05-21T05:09:05.556Z,13.57
2023-05-21T05:11:32.761Z,13.43
2023-05-21T05:13:59.750Z,13.63
2023-05-21T05:16:26.916Z,13.66
2023-05-21T05:18:54.318Z,13.81
2023-05-21T05:21:24.106Z,13.67
2023-05-21T05:23:51.157Z,14.25
2023-05-21T05:26:18.102Z,14.59
2023-05-21T05:28:46.166Z,14.75
2023-05-21T05:31:13.351Z,14.94
2023-05-21T05:33:41.749Z,15.19
2023-05-21T05:36:08.915Z,15.60
2023-05-21T05:38:36.430Z,15.90
2023-05-21T05:41:03.351Z,15.77
2023-05-21T05:43:30.455Z,15.30
2023-05-21T05:45:57.587Z,15.68
2023-05-21T05:48:24.874Z,15.81
2023-05-21T05:50:55.361Z,16.12
2023-05-21T05:53:22.392Z,16.30
2023-05-21T05:55:49.371Z,16.38
2023-05-21T05:58:16.761Z,16.33
2023-05-21T06:00:43.655Z,16.17
2023-05-21T06:03:12.334Z,15.93
2023-05-21T06:05:39.601Z,15.98
2023-05-21T06:08:06.948Z,16.52
2023-05-21T06:10:34.045Z,17.28
2023-05-21T06:13:01.228Z,17.82
2023-05-21T06:15:28.117Z,18.91
2023-05-21T06:17:55.066Z,20.18
2023-05-21T06:20:22.254Z,20.71
2023-05-21T06:22:49.225Z,20.89
2023-05-21T06:25:16.504Z,21.14
2023-05-21T06:27:43.400Z,21.66
2023-05-21T06:30:10.785Z,21.25
2023-05-21T06:32:37.759Z,21.61
2023-05-21T06:35:05.244Z,21.62
2023-05-21T06:37:32.124Z,20.67
2023-05-21T06:39:59.003Z,20.52
2023-05-21T06:42:26.001Z,20.41
2023-05-21T06:44:53.961Z,20.23
2023-05-21T06:47:21.118Z,20.26
2023-05-21T06:49:48.170Z,19.78
2023-05-21T06:52:15.147Z,19.85
2023-05-21T06:54:42.712Z,19.76
2023-05-21T06:57:09.765Z,20.63
2023-05-21T06:59:36.786Z,20.63
2023-05-21T07:02:04.760Z,20.40
2023-05-21T07:04:32.265Z,20.68
2023-05-21T07:06:59.324Z,20.82
2023-05-21T07:09:26.256Z,20.45
2023-05-21T07:11:53.732Z,20.72
2023-05-21T07:14:20.563Z,21.23
2023-05-21T07:16:47.689Z,21.41
2023-05-21T07:19:15.665Z,21.26
2023-05-21T07:21:45.424Z,21.09
2023-05-21T07:24:12.337Z,21.12
2023-05-21T07:26:39.200Z,20.33
2023-05-21T07:29:06.384Z,20.48
2023-05-21T07:31:33.358Z,20.05
2023-05-21T07:34:00.545Z,20.69
2023-05-21T07:36:27.869Z,21.65
2023-05-21T07:38:55.139Z,22.22
2023-05-21T07:41:22.922Z,22.28
2023-05-21T07:43:50.073Z,22.75
2023-05-21T07:46:16.947Z,21.96
2023-05-21T07:48:43.883Z,22.23
2023-05-21T07:51:11.907Z,22.96
2023-05-21T07:53:39.089Z,23.09
2023-05-21T07:56:08.684Z,23.83
2023-05-21T07:58:36.647Z,23.99
2023-05-21T08:01:03.553Z,23.77
2023-05-21T08:03:31.194Z,24.50
2023-05-21T08:05:58.409Z,25.55
2023-05-21T08:08:26.798Z,26.20
2023-05-21T08:10:53.758Z,25.70
2023-05-21T08:13:20.725Z,25.66
2023-05-21T08:15:56.289Z,25.55
2023-05-21T08:18:24.169Z,25.40
2023-05-21T08:20:51.958Z,25.47
2023-05-21T08:23:18.791Z,26.09
2023-05-21T08:25:45.829Z,26.26
2023-05-21T08:28:12.934Z,25.95
2023-05-21T08:30:39.902Z,25.94
2023-05-21T08:33:07.148Z,25.25
2023-05-21T08:35:34.318Z,24.94
2023-05-21T08:38:01.689Z,24.37
2023-05-21T08:40:28.633Z,24.33
2023-05-21T08:42:55.541Z,24.02
2023-05-21T08:45:24.164Z,24.56
2023-05-21T08:47:58.756Z,24.68
2023-05-21T08:50:27.987Z,24.56
2023-05-21T08:52:55.735Z,25.39
2023-05-21T08:55:23.908Z,25.80
2023-05-21T08:57:51.186Z,26.06
2023-05-21T09:00:18.410Z,27.59
2023-05-21T09:02:46.812Z,26.76
2023-05-21T09:05:15.166Z,25.98
2023-05-21T09:07:56.051Z,25.26
2023-05-21T09:10:29.763Z,25.29
2023-05-21T09:12:56.669Z,24.90
2023-05-21T09:15:23.950Z,25.21
2023-05-21T09:17:51.246Z,25.22
2023-05-21T09:20:18.304Z,23.88
2023-05-21T09:22:50.065Z,23.50
2023-05-21T09:25:19.315Z,23.36
2023-05-21T09:27:46.433Z,23.59
2023-05-21T09:30:18.475Z,24.07
2023-05-21T09:32:46.792Z,24.16
2023-05-21T09:35:15.715Z,24.74
2023-05-21T09:37:45.302Z,25.04
2023-05-21T09:40:16.873Z,25.47
2023-05-21T09:42:52.963Z,25.02
2023-05-21T09:45:26.907Z,25.08
2023-05-21T09:47:55.839Z,24.99
2023-05-21T09:50:28.192Z,23.92
2023-05-21T09:52:56.320Z,24.64
2023-05-21T09:55:24.350Z,24.72
2023-05-21T09:57:52.039Z,24.16
2023-05-21T10:00:24.009Z,25.14
2023-05-21T10:03:01.064Z,26.15
2023-05-21T10:05:30.049Z,27.74
2023-05-21T10:08:04.887Z,27.99
2023-05-21T10:10:32.537Z,28.41
2023-05-21T10:13:04.700Z,27.09
2023-05-21T10:15:35.513Z,26.06
2023-05-21T10:18:03.868Z,26.80
2023-05-21T10:20:31.682Z,27.72
2023-05-21T10:22:59.370Z,28.41
2023-05-21T10:25:27.012Z,28.49
2023-05-21T10:27:56.097Z,28.56
2023-05-21T10:30:24.256Z,29.48
2023-05-21T10:32:52.737Z,29.99
2023-05-21T10:35:20.167Z,31.10
2023-05-21T10:37:47.182Z,30.70
2023-05-21T10:40:14.302Z,33.93
2023-05-21T10:42:58.693Z,35.37
2023-05-21T10:45:39.137Z,33.53
2023-05-21T10:48:26.863Z,33.88
2023-05-21T10:51:12.418Z,35.32
2023-05-21T10:53:54.553Z,35.86
2023-05-21T10:56:36.842Z,34.41
2023-05-21T10:59:23.333Z,33.68
2023-05-21T11:01:54.738Z,33.10
2023-05-21T11:04:28.299Z,31.12
2023-05-21T11:06:56.684Z,32.02
2023-05-21T11:09:23.679Z,31.89
2023-05-21T11:11:58.540Z,32.99
2023-05-21T11:14:39.549Z,32.49
2023-05-21T11:17:09.967Z,31.41
2023-05-21T11:19:47.503Z,34.74
2023-05-21T11:22:22.067Z,35.59
2023-05-21T11:24:51.213Z,34.32
2023-05-21T11:27:36.164Z,35.71
2023-05-21T11:30:10.801Z,35.17
2023-05-21T11:32:39.627Z,35.84
2023-05-21T11:35:07.797Z,35.30
2023-05-21T11:37:35.648Z,33.33
2023-05-21T11:40:30.526Z,31.48
2023-05-21T11:42:57.700Z,30.32
2023-05-21T11:45:29.703Z,28.78
2023-05-21T11:47:57.313Z,29.42
2023-05-21T11:50:26.266Z,29.60
2023-05-21T11:52:53.539Z,29.97
2023-05-21T11:55:26.277Z,29.32
2023-05-21T11:57:55.710Z,28.94
2023-05-21T12:00:23.537Z,28.54
2023-05-21T12:02:53.206Z,27.85
2023-05-21T12:05:21.406Z,27.02
2023-05-21T12:07:50.543Z,27.33
2023-05-21T12:10:21.776Z,27.18
2023-05-21T12:12:55.506Z,27.05
2023-05-21T12:15:24.730Z,27.57
2023-05-21T12:17:53.386Z,26.92
2023-05-21T12:20:21.110Z,27.29
2023-05-21T12:22:49.950Z,27.20
2023-05-21T12:25:23.738Z,26.93
2023-05-21T12:27:58.590Z,26.26
2023-05-21T12:30:26.686Z,26.73
2023-05-21T12:32:53.987Z,27.53
2023-05-21T12:35:24.755Z,27.21
2023-05-21T12:37:52.607Z,26.88
2023-05-21T12:40:20.576Z,27.10
2023-05-21T12:42:47.588Z,26.28
2023-05-21T12:45:15.425Z,26.55
2023-05-21T12:47:48.089Z,26.53
2023-05-21T12:50:15.186Z,26.35
2023-05-21T12:52:45.144Z,26.08
2023-05-21T12:55:15.139Z,26.50
2023-05-21T12:57:44.068Z,26.89
2023-05-21T13:00:12.029Z,27.51
2023-05-21T13:02:43.001Z,27.76
2023-05-21T13:05:19.650Z,27.60
2023-05-21T13:07:51.800Z,27.36
2023-05-21T13:10:18.993Z,26.86
2023-05-21T13:12:46.622Z,26.96
2023-05-21T13:15:15.335Z,26.21
2023-05-21T13:17:42.714Z,26.52
2023-05-21T13:20:18.640Z,26.35
2023-05-21T13:22:50.562Z,26.19
2023-05-21T13:25:21.523Z,26.16
2023-05-21T13:27:50.554Z,26.27
2023-05-21T13:30:18.225Z,26.59
2023-05-21T13:32:45.934Z,26.58
2023-05-21T13:35:13.684Z,26.87
2023-05-21T13:37:41.627Z,26.86
2023-05-21T13:40:11.535Z,27.25
2023-05-21T13:42:39.236Z,27.63
2023-05-21T13:45:07.900Z,27.25
2023-05-21T13:47:39.947Z,26.89
2023-05-21T13:50:08.531Z,26.57
2023-05-21T13:52:36.055Z,26.74
2023-05-21T13:55:03.562Z,26.71
2023-05-21T13:57:31.350Z,26.41
2023-05-21T13:59:59.441Z,26.50
2023-05-21T14:02:26.748Z,27.14
2023-05-21T14:04:55.297Z,27.52
2023-05-21T14:07:22.578Z,27.60
2023-05-21T14:09:49.842Z,27.57
2023-05-21T14:12:17.329Z,27.52
2023-05-21T14:14:45.013Z,26.67
2023-05-21T14:17:11.965Z,27.77
2023-05-21T14:19:39.161Z,27.84
2023-05-21T14:22:06.213Z,27.56
2023-05-21T14:24:33.340Z,27.06
2023-05-21T14:27:00.356Z,26.92
2023-05-21T14:29:27.445Z,26.83
2023-05-21T14:31:54.610Z,26.94
2023-05-21T14:34:21.498Z,27.46
2023-05-21T14:36:48.412Z,27.38
2023-05-21T14:39:15.901Z,27.96
2023-05-21T14:41:42.944Z,28.05
2023-05-21T14:44:09.883Z,27.80
2023-05-21T14:46:40.880Z,28.02
2023-05-21T14:49:07.858Z,27.92
2023-05-21T14:51:34.809Z,27.88
2023-05-21T14:54:01.678Z,28.03
2023-05-21T14:56:28.629Z,28.24
2023-05-21T14:58:55.886Z,28.15
2023-05-21T15:01:23.591Z,27.99
2023-05-21T15:03:51.117Z,27.63
2023-05-21T15:06:18.697Z,27.53
2023-05-21T15:08:45.698Z,27.64
2023-05-21T15:11:12.594Z,28.12
2023-05-21T15:13:39.970Z,28.41
2023-05-21T15:16:06.983Z,28.10
2023-05-21T15:18:37.683Z,28.03
2023-05-21T15:21:05.420Z,28.14
2023-05-21T15:23:32.520Z,27.96
2023-05-21T15:25:59.425Z,27.47
2023-05-21T15:28:26.508Z,27.68
2023-05-21T15:30:53.500Z,27.87
2023-05-21T15:33:20.931Z,27.45
2023-05-21T15:35:48.092Z,27.08
2023-05-21T15:38:15.389Z,26.76
2023-05-21T15:40:42.784Z,26.71
2023-05-21T15:43:09.904Z,26.71
2023-05-21T15:45:37.435Z,26.73
2023-05-21T15:48:05.180Z,26.68
2023-05-21T15:50:32.443Z,26.50
2023-05-21T15:52:59.477Z,26.49
2023-05-21T15:55:26.405Z,26.43
2023-05-21T15:57:53.395Z,26.15
2023-05-21T16:00:20.537Z,26.00
2023-05-21T16:02:47.775Z,25.91
2023-05-21T16:05:14.615Z,25.88
2023-05-21T16:07:42.116Z,26.35
2023-05-21T16:10:09.902Z,26.37
2023-05-21T16:12:37.029Z,26.48
2023-05-21T16:15:04.647Z,26.38
2023-05-21T16:17:31.970Z,26.49
2023-05-21T16:19:59.000Z,26.26
2023-05-21T16:22:26.406Z,26.41
2023-05-21T16:24:55.126Z,26.58
2023-05-21T16:27:22.263Z,26.41
2023-05-21T16:29:49.237Z,26.28
2023-05-21T16:32:16.378Z,26.14
2023-05-21T16:34:43.375Z,25.84
2023-05-21T16:37:10.308Z,25.56
2023-05-21T16:39:37.743Z,25.52
2023-05-21T16:42:04.722Z,25.50
2023-05-21T16:44:32.510Z,25.78
2023-05-21T16:46:59.881Z,25.96
2023-05-21T16:49:27.947Z,25.66
2023-05-21T16:51:55.110Z,25.69
2023-05-21T16:54:22.258Z,25.26
2023-05-21T16:56:49.211Z,24.98
2023-05-21T16:59:16.691Z,24.76
2023-05-21T17:01:44.106Z,24.85
2023-05-21T17:04:11.339Z,24.88
2023-05-21T17:06:38.382Z,24.98
2023-05-21T17:09:05.467Z,24.77
2023-05-21T17:11:32.687Z,24.64
2023-05-21T17:13:59.675Z,24.53
2023-05-21T17:16:27.047Z,24.45
2023-05-21T17:18:54.191Z,24.18
2023-05-21T17:21:21.394Z,23.92
2023-05-21T17:23:48.482Z,23.94
2023-05-21T17:26:15.623Z,23.80
2023-05-21T17:28:43.379Z,23.68
2023-05-21T17:31:10.452Z,23.64
2023-05-21T17:33:38.233Z,23.77
2023-05-21T17:36:05.406Z,24.00
2023-05-21T17:38:32.290Z,24.17
2023-05-21T17:40:59.575Z,24.50
2023-05-21T17:43:27.880Z,24.70
2023-05-21T17:45:54.936Z,24.83
2023-05-21T17:48:22.165Z,24.78
2023-05-21T17:50:49.467Z,24.83
2023-05-21T17:53:16.861Z,24.92
2023-05-21T17:55:44.260Z,24.93
2023-05-21T17:58:11.362Z,24.61
2023-05-21T18:00:38.435Z,24.11
2023-05-21T18:03:05.686Z,23.98
2023-05-21T18:05:32.661Z,23.48
2023-05-21T18:08:01.488Z,23.39
2023-05-21T18:10:28.840Z,23.41
2023-05-21T18:12:55.945Z,23.13
2023-05-21T18:15:23.133Z,23.14
2023-05-21T18:17:50.209Z,23.04
2023-05-21T18:20:17.279Z,22.86
2023-05-21T18:22:44.993Z,22.67
2023-05-21T18:25:12.094Z,22.53
2023-05-21T18:27:39.103Z,22.29
2023-05-21T18:30:07.394Z,22.23
2023-05-21T18:32:39.071Z,22.17
2023-05-21T18:35:14.308Z,22.05
2023-05-21T18:37:44.808Z,22.02
2023-05-21T18:40:12.747Z,21.98
2023-05-21T18:42:39.747Z,21.99
2023-05-21T18:45:08.817Z,21.85
2023-05-21T18:47:35.841Z,21.59
2023-05-21T18:50:03.000Z,21.35
2023-05-21T18:52:29.996Z,21.29
2023-05-21T18:54:57.067Z,21.34
2023-05-21T18:57:24.116Z,21.26
2023-05-21T18:59:51.216Z,21.10
2023-05-21T19:02:18.170Z,20.90
2023-05-21T19:04:45.067Z,20.84
2023-05-21T19:07:12.113Z,20.85
2023-05-21T19:09:39.373Z,20.73
2023-05-21T19:12:06.849Z,20.62
2023-05-21T19:14:33.707Z,20.66
2023-05-21T19:17:00.550Z,20.69
2023-05-21T19:19:27.877Z,20.65
2023-05-21T19:21:54.842Z,20.41
2023-05-21T19:24:21.802Z,20.16
2023-05-21T19:26:48.980Z,20.27
2023-05-21T19:29:16.240Z,20.18
2023-05-21T19:31:43.500Z,20.25
2023-05-21T19:36:51.535Z,20.09
2023-05-21T19:39:19.501Z,20.01
2023-05-21T19:41:46.494Z,19.88
2023-05-21T19:44:13.474Z,19.90
2023-05-21T19:46:40.625Z,19.96
2023-05-21T19:49:07.587Z,19.79
2023-05-21T19:51:34.511Z,19.77
2023-05-21T19:54:01.691Z,19.85
2023-05-21T19:56:28.705Z,19.86
2023-05-21T19:58:55.766Z,19.83
2023-05-21T20:01:23.642Z,19.73
2023-05-21T20:03:51.072Z,19.65
2023-05-21T20:06:19.249Z,19.70
2023-05-21T20:08:46.616Z,19.61
2023-05-21T20:11:13.817Z,19.59
2023-05-21T20:13:42.180Z,19.57
2023-05-21T20:16:10.754Z,19.69
2023-05-21T20:18:37.858Z,19.56
2023-05-21T20:21:06.519Z,19.48
2023-05-21T20:23:33.568Z,19.46
2023-05-21T20:26:00.770Z,19.52
2023-05-21T20:28:27.702Z,19.40
2023-05-21T20:30:59.351Z,19.40
2023-05-21T20:33:31.475Z,19.42
2023-05-21T20:35:59.527Z,19.37
2023-05-21T20:38:27.929Z,19.34
2023-05-21T20:40:55.303Z,19.27
2023-05-21T20:43:24.520Z,19.36
2023-05-21T20:45:59.893Z,19.27
2023-05-21T20:48:32.424Z,19.19
2023-05-21T20:51:00.421Z,19.20
2023-05-21T20:53:27.335Z,19.14
2023-05-21T20:55:55.066Z,19.14
2023-05-21T20:58:24.165Z,19.18
2023-05-21T21:00:53.513Z,19.17
2023-05-21T21:03:21.957Z,19.13
2023-05-21T21:05:49.055Z,19.12
2023-05-21T21:08:16.424Z,19.04
2023-05-21T21:10:47.033Z,19.00
2023-05-21T21:13:14.858Z,18.83
2023-05-21T21:15:43.014Z,19.00
2023-05-21T21:18:12.742Z,18.85
2023-05-21T21:20:41.464Z,18.81
2023-05-21T21:23:08.857Z,18.75
2023-05-21T21:25:36.144Z,18.78
2023-05-21T21:28:03.275Z,18.80
2023-05-21T21:30:33.187Z,18.76
2023-05-21T21:33:00.101Z,18.61
2023-05-21T21:35:27.305Z,18.51
2023-05-21T21:37:54.350Z,18.52
2023-05-21T21:40:21.415Z,18.51
2023-05-21T21:42:48.345Z,18.47
2023-05-21T21:45:15.299Z,18.32
2023-05-21T21:47:42.223Z,18.31
2023-05-21T21:50:09.780Z,18.40
2023-05-21T21:52:40.287Z,18.30
2023-05-21T21:55:11.150Z,18.17
2023-05-21T21:57:39.700Z,18.15
2023-05-21T22:00:11.972Z,18.14
2023-05-21T22:02:40.531Z,18.22
2023-05-21T22:05:08.887Z,18.07
2023-05-21T22:07:38.912Z,18.03
2023-05-21T22:10:06.548Z,17.91
2023-05-21T22:12:34.357Z,17.97
2023-05-21T22:15:05.542Z,18.07
2023-05-21T22:17:33.321Z,17.97
2023-05-21T22:20:01.072Z,17.85
2023-05-21T22:22:28.034Z,17.85
2023-05-21T22:24:55.125Z,17.74
2023-05-21T22:27:22.023Z,17.64
2023-05-21T22:29:48.995Z,17.67
2023-05-21T22:32:15.925Z,17.60
2023-05-21T22:34:43.598Z,17.52
2023-05-21T22:37:11.360Z,17.48
2023-05-21T22:39:38.462Z,17.51
2023-05-21T22:42:05.900Z,17.41
2023-05-21T22:44:33.066Z,17.43
2023-05-21T22:47:01.233Z,17.37
2023-05-21T22:49:28.320Z,17.55
2023-05-21T22:51:55.189Z,17.40
2023-05-21T22:54:22.755Z,17.38
2023-05-21T22:56:50.108Z,17.26
2023-05-21T22:59:17.088Z,17.23
2023-05-21T23:01:44.125Z,17.24
2023-05-21T23:04:11.317Z,17.07
2023-05-21T23:06:38.460Z,17.17
2023-05-21T23:09:05.648Z,17.08
2023-05-21T23:11:32.654Z,17.07
2023-05-21T23:13:59.574Z,17.01
2023-05-21T23:16:26.757Z,17.00
2023-05-21T23:18:54.728Z,16.91
2023-05-21T23:21:22.170Z,16.93
2023-05-21T23:23:49.259Z,16.89
2023-05-21T23:26:16.170Z,16.91
2023-05-21T23:28:43.052Z,16.92
2023-05-21T23:31:11.569Z,17.02
2023-05-21T23:33:38.373Z,16.97
2023-05-21T23:36:05.495Z,16.94
2023-05-21T23:38:32.440Z,16.85
2023-05-21T23:41:02.520Z,17.02
2023-05-21T23:43:29.484Z,16.79
2023-05-21T23:45:56.763Z,16.76
2023-05-21T23:48:23.804Z,16.88
2023-05-21T23:50:50.987Z,16.84
2023-05-21T23:53:20.416Z,16.77
2023-05-21T23:55:47.651Z,16.77
2023-05-21T23:58:14.643Z,16.78
